Terminal Aerodrome Forecast
Issued by NWS St Louis, MO

Home | Current Version | Previous Version | Text Only | Print | Product List | Glossary On
Versions: 1 2 3 4 5 6 7 8 9 10 11 12 13 14 15 16 17 18 19 20 21 22 23 24 25
000
FTUS43 KLSX 172300
TAFCOU
TAF
KCOU 172339Z 1800/1824 VRB04KT P6SM OVC080
     FM180600 09004KT 6SM -SN OVC040
     FM180900 06005KT 1SM -SN BR OVC007
     FM181300 06005KT 5SM -SN BR OVC007
     FM181600 07005KT 5SM -DZ BR OVC008=

USA.gov is the U.S. government's official web portal to all federal, state and local government web resources and services.